Time;durP1;ratioP1;P1;durP2;ratioP2;P2;SDS_P1;SDS_P2;PMS_P1;PMS_P2;Temp;Humidity;BMP_temperature;BMP_pressure;BME280_temperature;BME280_humidity;BME280_pressure;Samples;Min_cycle;Max_cycle;Signal;HPM_P1;HPM_P2
2023/02/10 00:01:06;;;;;;;20.55;15.80;;;6.30;99.90;;;;;;4995473;28;20220;-73
2023/02/10 00:03:32;;;;;;;23.27;16.02;;;6.30;99.90;;;;;;4979380;28;20673;-73
2023/02/10 00:05:58;;;;;;;19.97;15.77;;;6.30;99.90;;;;;;5012696;28;20301;-73
2023/02/10 00:08:24;;;;;;;23.40;17.70;;;6.30;99.90;;;;;;4995544;28;20597;-73
2023/02/10 00:10:49;;;;;;;21.88;17.40;;;6.30;99.90;;;;;;5013007;28;20582;-73
2023/02/10 00:13:15;;;;;;;22.70;16.33;;;6.30;99.90;;;;;;4995275;28;20178;-74
2023/02/10 00:15:41;;;;;;;24.60;17.20;;;6.40;99.90;;;;;;4994180;28;20171;-73
2023/02/10 00:18:06;;;;;;;21.13;15.53;;;6.40;99.90;;;;;;4995627;28;20293;-73
2023/02/10 00:20:32;;;;;;;20.33;16.30;;;6.40;99.90;;;;;;4994966;28;20181;-73
2023/02/10 00:22:58;;;;;;;23.63;16.57;;;6.40;99.90;;;;;;4994754;28;20564;-75
2023/02/10 00:25:24;;;;;;;22.23;16.63;;;6.40;99.90;;;;;;5012268;28;20229;-73
2023/02/10 00:27:50;;;;;;;21.87;17.07;;;6.40;99.90;;;;;;5012685;28;20265;-73
2023/02/10 00:30:16;;;;;;;21.85;16.55;;;6.50;99.90;;;;;;4995196;28;20183;-73
2023/02/10 00:32:42;;;;;;;21.53;17.07;;;6.50;99.90;;;;;;4979232;28;20174;-73
2023/02/10 00:35:08;;;;;;;24.13;18.17;;;6.50;99.90;;;;;;4994868;28;20166;-74
2023/02/10 00:37:34;;;;;;;21.48;16.95;;;6.60;99.90;;;;;;5011954;28;20252;-74
2023/02/10 00:40:00;;;;;;;24.20;16.85;;;6.60;99.90;;;;;;4995015;28;20599;-74
2023/02/10 00:42:26;;;;;;;21.38;17.67;;;6.60;99.90;;;;;;4994330;28;20289;-74
2023/02/10 00:44:52;;;;;;;25.73;18.50;;;6.60;99.90;;;;;;5012271;28;20304;-74
2023/02/10 00:47:18;;;;;;;20.85;15.25;;;6.60;99.90;;;;;;5012128;28;20252;-74
2023/02/10 00:49:44;;;;;;;19.97;15.97;;;6.60;99.90;;;;;;4994908;28;20178;-74
2023/02/10 00:52:10;;;;;;;22.50;16.10;;;6.60;99.90;;;;;;4978156;28;20178;-74
2023/02/10 00:54:35;;;;;;;22.80;17.63;;;6.60;99.90;;;;;;4978157;28;20171;-74
2023/02/10 00:57:01;;;;;;;23.93;17.60;;;6.60;99.90;;;;;;4994275;28;20213;-74
2023/02/10 00:59:27;;;;;;;23.77;18.37;;;6.70;99.90;;;;;;4994506;28;20182;-74
2023/02/10 01:01:54;;;;;;;23.95;18.05;;;6.70;99.90;;;;;;4994306;28;20296;-74
2023/02/10 01:04:19;;;;;;;27.20;17.70;;;6.70;99.90;;;;;;4994330;28;20190;-74
2023/02/10 01:06:45;;;;;;;21.75;16.73;;;6.70;99.90;;;;;;4993997;28;20170;-74
2023/02/10 01:09:11;;;;;;;20.63;16.67;;;6.70;99.90;;;;;;4993983;28;20201;-74
2023/02/10 01:11:37;;;;;;;25.07;18.93;;;6.70;99.90;;;;;;4977881;28;20185;-74
2023/02/10 01:14:03;;;;;;;25.65;19.10;;;6.70;99.90;;;;;;4977953;28;20183;-74
2023/02/10 01:16:29;;;;;;;23.98;17.98;;;6.70;99.90;;;;;;5011479;28;20233;-74
2023/02/10 01:18:57;;;;;;;28.45;20.10;;;6.70;99.90;;;;;;5011975;28;20202;-74
2023/02/10 01:21:23;;;;;;;24.92;18.33;;;6.70;99.90;;;;;;4993440;28;20272;-74
2023/02/10 01:23:49;;;;;;;25.63;19.67;;;6.80;99.90;;;;;;4994904;28;20289;-74
2023/02/10 01:26:15;;;;;;;26.20;17.93;;;6.70;99.90;;;;;;4977121;28;20175;-74
2023/02/10 01:28:41;;;;;;;24.00;18.20;;;6.70;99.90;;;;;;4977604;28;20194;-74
2023/02/10 01:31:09;;;;;;;22.48;18.10;;;6.70;99.90;;;;;;4993529;28;20186;-74
2023/02/10 01:33:36;;;;;;;26.70;17.95;;;6.70;99.90;;;;;;4994006;28;20269;-74
2023/02/10 01:36:07;;;;;;;25.17;17.90;;;6.70;99.90;;;;;;5010706;28;20261;-74
2023/02/10 01:38:32;;;;;;;28.63;20.05;;;6.70;99.90;;;;;;4977620;28;20240;-74
2023/02/10 01:40:58;;;;;;;29.20;17.10;;;6.70;99.90;;;;;;4977516;28;20186;-74
2023/02/10 01:43:25;;;;;;;24.75;16.25;;;6.70;99.90;;;;;;4993519;28;20664;-74
2023/02/10 01:45:52;;;;;;;27.20;17.02;;;6.70;99.90;;;;;;4977520;28;20180;-74
2023/02/10 01:48:19;;;;;;;26.20;16.93;;;6.70;99.90;;;;;;5011110;28;20186;-74
2023/02/10 01:50:53;;;;;;;24.35;17.05;;;6.70;99.90;;;;;;4977539;28;20170;-74
2023/02/10 01:53:21;;;;;;;24.48;16.75;;;6.70;99.90;;;;;;4993455;28;20184;-74
2023/02/10 01:55:51;;;;;;;23.88;16.60;;;6.80;99.90;;;;;;4993429;28;20174;-74
2023/02/10 01:58:20;;;;;;;30.80;18.85;;;6.80;99.90;;;;;;4977416;28;20209;-74
2023/02/10 02:00:46;;;;;;;26.73;16.92;;;6.80;99.90;;;;;;4978129;28;20188;-74
2023/02/10 02:03:13;;;;;;;28.00;18.60;;;6.80;99.90;;;;;;4977286;28;20206;-74
2023/02/10 02:05:40;;;;;;;24.13;17.65;;;6.90;99.90;;;;;;4993123;28;20225;-74
2023/02/10 02:08:10;;;;;;;24.75;17.60;;;6.90;99.90;;;;;;4975842;28;20333;-74
2023/02/10 02:11:09;;;;;;;25.33;17.80;;;6.90;99.90;;;;;;5011462;28;20549;-74
2023/02/10 02:14:06;;;;;;;21.88;16.52;;;6.90;99.90;;;;;;4977331;28;20292;-74
2023/02/10 02:16:46;;;;;;;25.17;17.58;;;6.90;99.90;;;;;;4977347;28;20638;-75
2023/02/10 02:19:24;;;;;;;24.02;17.95;;;6.90;99.90;;;;;;4977204;28;20247;-74
2023/02/10 02:22:08;;;;;;;26.00;17.80;;;6.90;99.90;;;;;;4993331;28;20208;-74
2023/02/10 02:25:15;;;;;;;20.75;15.48;;;6.90;99.90;;;;;;4977343;28;20167;-74
2023/02/10 02:28:21;;;;;;;24.38;16.77;;;6.90;99.90;;;;;;4977308;28;20590;-74
2023/02/10 02:31:07;;;;;;;23.30;16.58;;;6.90;99.90;;;;;;4916168;28;20241;-74
2023/02/10 02:33:42;;;;;;;23.98;16.38;;;7.00;99.90;;;;;;4993426;28;20182;-74
2023/02/10 02:36:18;;;;;;;26.63;16.70;;;6.90;99.90;;;;;;4976574;28;20178;-74
2023/02/10 02:38:44;;;;;;;25.35;18.00;;;6.90;99.90;;;;;;4994911;28;20310;-74
2023/02/10 02:41:10;;;;;;;20.57;15.73;;;7.00;99.90;;;;;;4980400;28;20202;-74
2023/02/10 02:43:37;;;;;;;24.00;15.70;;;7.00;99.90;;;;;;4981026;28;20213;-74
2023/02/10 02:46:22;;;;;;;20.05;16.23;;;7.00;99.90;;;;;;4980678;28;20686;-74
2023/02/10 02:49:09;;;;;;;26.63;16.33;;;7.00;99.90;;;;;;4980560;28;20189;-74
2023/02/10 02:52:00;;;;;;;22.92;17.75;;;7.00;99.90;;;;;;4996666;28;20178;-74
2023/02/10 02:54:51;;;;;;;26.08;17.73;;;7.00;99.90;;;;;;4980878;28;20221;-74
2023/02/10 02:57:47;;;;;;;29.88;19.05;;;7.00;99.90;;;;;;4980292;28;20190;-74
2023/02/10 03:00:30;;;;;;;22.00;16.77;;;7.00;99.90;;;;;;4980799;28;20171;-74
2023/02/10 03:02:57;;;;;;;30.25;18.13;;;7.00;99.90;;;;;;4979842;28;20386;-74
2023/02/10 03:05:30;;;;;;;22.70;16.60;;;7.00;99.90;;;;;;4996397;28;20265;-74
2023/02/10 03:07:56;;;;;;;22.88;17.50;;;7.00;99.90;;;;;;4996469;28;20221;-74
2023/02/10 03:10:21;;;;;;;23.27;18.13;;;7.00;99.90;;;;;;4980399;28;20264;-74
2023/02/10 03:12:47;;;;;;;25.00;16.97;;;7.00;99.90;;;;;;4996413;28;20189;-74
2023/02/10 03:15:13;;;;;;;29.13;18.45;;;7.00;99.90;;;;;;4995911;28;20183;-74
2023/02/10 03:17:40;;;;;;;26.70;18.77;;;7.10;99.90;;;;;;4996470;28;20264;-74
2023/02/10 03:20:06;;;;;;;24.33;18.17;;;7.10;99.90;;;;;;5013899;28;20932;-74
2023/02/10 03:22:32;;;;;;;27.73;17.92;;;7.10;99.90;;;;;;4996145;28;20210;-73
2023/02/10 03:24:57;;;;;;;22.50;17.57;;;7.10;99.90;;;;;;4979515;28;20186;-74
2023/02/10 03:27:23;;;;;;;25.57;18.10;;;7.10;99.90;;;;;;4996314;28;20701;-74
2023/02/10 03:29:49;;;;;;;25.80;17.70;;;7.10;99.90;;;;;;4996078;28;20253;-74
2023/02/10 03:32:16;;;;;;;24.60;18.35;;;7.10;99.90;;;;;;4995866;28;20214;-74
2023/02/10 03:34:42;;;;;;;26.85;18.60;;;7.10;99.90;;;;;;4996183;28;20225;-73
2023/02/10 03:37:08;;;;;;;27.23;19.80;;;7.10;99.90;;;;;;5013066;28;20171;-74
2023/02/10 03:39:33;;;;;;;28.77;19.23;;;7.00;99.90;;;;;;4996234;28;20573;-74
2023/02/10 03:42:03;;;;;;;26.07;19.23;;;7.00;99.90;;;;;;4995603;28;20638;-75
2023/02/10 03:44:29;;;;;;;31.55;19.08;;;7.00;99.90;;;;;;5013735;28;20658;-74
2023/02/10 03:46:54;;;;;;;25.75;18.63;;;7.00;99.90;;;;;;4995057;28;20181;-74
2023/02/10 03:49:20;;;;;;;23.10;17.93;;;6.90;99.90;;;;;;4995894;28;20167;-74
2023/02/10 03:51:46;;;;;;;22.07;18.00;;;6.80;99.90;;;;;;5012740;28;20638;-74
2023/02/10 03:54:11;;;;;;;32.67;17.80;;;6.80;99.90;;;;;;4995933;28;20181;-74
2023/02/10 03:56:37;;;;;;;23.23;15.90;;;6.70;99.90;;;;;;5012637;28;20224;-74
2023/02/10 03:59:04;;;;;;;23.80;16.93;;;6.60;99.90;;;;;;4979854;28;20232;-74
2023/02/10 04:01:30;;;;;;;24.20;16.50;;;6.60;99.90;;;;;;4995399;28;20201;-74
2023/02/10 04:03:56;;;;;;;27.38;17.63;;;6.50;99.90;;;;;;4979345;28;20681;-73
2023/02/10 04:06:22;;;;;;;25.80;17.70;;;6.50;99.90;;;;;;5012930;28;20178;-74
2023/02/10 04:08:48;;;;;;;22.90;18.20;;;6.30;99.90;;;;;;4995479;28;20609;-74
2023/02/10 04:11:14;;;;;;;25.02;17.77;;;6.30;99.90;;;;;;4995466;28;20275;-74
2023/02/10 04:13:40;;;;;;;26.00;17.47;;;6.20;99.90;;;;;;5013059;28;20647;-74
2023/02/10 04:16:12;;;;;;;29.02;18.00;;;6.20;99.90;;;;;;5012644;28;20566;-75
2023/02/10 04:18:39;;;;;;;26.70;18.60;;;6.10;99.90;;;;;;5012976;28;20261;-75
2023/02/10 04:21:06;;;;;;;25.48;17.08;;;6.00;99.90;;;;;;5012901;28;20190;-74
2023/02/10 04:23:33;;;;;;;24.67;16.23;;;6.00;99.90;;;;;;4995172;28;20822;-74
2023/02/10 04:25:59;;;;;;;26.83;17.98;;;5.90;99.90;;;;;;5012515;28;20285;-74
2023/02/10 04:28:25;;;;;;;22.77;17.13;;;5.90;99.90;;;;;;5012853;28;20190;-74
2023/02/10 04:30:52;;;;;;;28.50;18.50;;;5.80;99.90;;;;;;4995282;28;20186;-75
2023/02/10 04:33:17;;;;;;;22.20;16.55;;;5.80;99.90;;;;;;4994889;28;20182;-73
2023/02/10 04:35:44;;;;;;;23.03;18.03;;;5.70;99.90;;;;;;5012004;28;20584;-73
2023/02/10 04:38:10;;;;;;;25.55;16.45;;;5.60;99.90;;;;;;4994883;28;20293;-73
2023/02/10 04:40:36;;;;;;;25.08;17.05;;;5.60;99.90;;;;;;4994649;28;20182;-73
2023/02/10 04:43:02;;;;;;;31.42;19.02;;;5.50;99.90;;;;;;5012373;28;20201;-73
2023/02/10 04:45:27;;;;;;;30.23;19.23;;;5.40;99.90;;;;;;5011733;28;20559;-73
2023/02/10 04:47:53;;;;;;;25.20;17.00;;;5.40;99.90;;;;;;4995046;28;20557;-73
2023/02/10 04:50:19;;;;;;;23.47;15.97;;;5.30;99.90;;;;;;4995016;28;20173;-73
2023/02/10 04:52:44;;;;;;;23.30;16.17;;;5.20;99.90;;;;;;4994297;28;20597;-73
2023/02/10 04:55:10;;;;;;;25.17;16.47;;;5.20;99.90;;;;;;4994384;28;20178;-74
2023/02/10 04:57:36;;;;;;;24.10;17.00;;;5.10;99.90;;;;;;4994416;28;20244;-74
2023/02/10 05:00:02;;;;;;;23.40;17.23;;;5.10;99.90;;;;;;5012173;28;20179;-74
2023/02/10 05:02:28;;;;;;;27.17;18.08;;;5.00;99.90;;;;;;5010755;28;20625;-74
2023/02/10 05:04:53;;;;;;;22.07;15.57;;;5.00;99.90;;;;;;4994256;28;20301;-74
2023/02/10 05:07:19;;;;;;;29.57;17.17;;;4.90;99.90;;;;;;4994032;28;20677;-74
2023/02/10 05:09:45;;;;;;;29.77;16.03;;;4.90;99.90;;;;;;4994408;28;20169;-74
2023/02/10 05:12:10;;;;;;;25.93;17.40;;;4.80;99.90;;;;;;4993967;28;20750;-74
2023/02/10 05:14:36;;;;;;;33.13;18.53;;;4.80;99.90;;;;;;5011883;28;20179;-74
2023/02/10 05:17:02;;;;;;;28.27;18.67;;;4.70;99.90;;;;;;5011535;28;20174;-74
2023/02/10 05:19:27;;;;;;;26.23;16.87;;;4.70;99.90;;;;;;4994414;28;20163;-74
2023/02/10 05:21:53;;;;;;;27.30;17.33;;;4.70;99.90;;;;;;4994040;28;20201;-74
2023/02/10 05:24:19;;;;;;;25.23;16.67;;;4.60;99.90;;;;;;4978036;28;20174;-74
2023/02/10 05:26:45;;;;;;;25.90;18.10;;;4.60;99.90;;;;;;5011541;28;20228;-74
2023/02/10 05:29:10;;;;;;;26.07;16.77;;;4.60;99.90;;;;;;4993696;28;20197;-73
2023/02/10 05:31:36;;;;;;;24.27;15.60;;;4.60;99.90;;;;;;5011492;28;20538;-73
2023/02/10 05:34:01;;;;;;;27.20;17.63;;;4.50;99.90;;;;;;5011472;28;20176;-74
2023/02/10 05:36:27;;;;;;;26.17;17.13;;;4.50;99.90;;;;;;4993485;28;20237;-74
2023/02/10 05:41:37;;;;;;;26.40;16.75;;;4.50;99.90;;;;;;4993533;28;20277;-77
2023/02/10 05:44:03;;;;;;;23.80;16.70;;;4.40;99.90;;;;;;4994155;28;20301;-77
2023/02/10 05:46:29;;;;;;;22.33;17.50;;;4.40;99.90;;;;;;4993226;28;20228;-76
2023/02/10 05:48:55;;;;;;;25.08;18.02;;;4.40;99.90;;;;;;4994069;28;20640;-76
2023/02/10 05:51:21;;;;;;;26.90;17.43;;;4.40;99.90;;;;;;4993404;28;20178;-76
2023/02/10 05:53:46;;;;;;;22.73;16.40;;;4.40;99.90;;;;;;4993865;28;20240;-76
2023/02/10 05:56:12;;;;;;;22.53;14.80;;;4.30;99.90;;;;;;4977286;28;20309;-75
2023/02/10 05:58:38;;;;;;;31.70;18.57;;;4.30;99.90;;;;;;4994453;28;20205;-76
2023/02/10 06:01:08;;;;;;;24.80;14.87;;;4.30;99.90;;;;;;5012402;28;20218;-76
2023/02/10 06:03:34;;;;;;;25.80;17.20;;;4.20;99.90;;;;;;5011982;28;20209;-76
2023/02/10 06:05:59;;;;;;;26.73;17.50;;;4.20;99.90;;;;;;5011311;28;20167;-76
2023/02/10 06:08:26;;;;;;;25.57;16.90;;;4.20;99.90;;;;;;4990357;28;20201;-76
2023/02/10 06:10:52;;;;;;;25.05;17.00;;;4.20;99.90;;;;;;5009498;28;20659;-76
2023/02/10 06:13:18;;;;;;;28.02;16.77;;;4.20;99.90;;;;;;4959215;28;20178;-77
2023/02/10 06:15:44;;;;;;;34.23;20.40;;;4.20;99.90;;;;;;4995603;28;20539;-74
2023/02/10 06:18:09;;;;;;;24.50;18.13;;;4.20;99.90;;;;;;4997700;28;20191;-73
2023/02/10 06:20:35;;;;;;;29.30;16.80;;;4.20;99.90;;;;;;4996150;28;20205;-73
2023/02/10 06:23:01;;;;;;;26.27;17.80;;;4.10;99.90;;;;;;5007255;28;20724;-73
2023/02/10 06:25:27;;;;;;;32.90;19.27;;;4.10;99.90;;;;;;5029638;28;20533;-73
2023/02/10 06:27:53;;;;;;;29.58;18.88;;;4.10;99.90;;;;;;5018056;28;20197;-73
2023/02/10 06:30:19;;;;;;;31.00;18.67;;;4.10;99.90;;;;;;5026054;28;20510;-74
2023/02/10 06:32:45;;;;;;;32.80;21.48;;;4.10;99.90;;;;;;5014179;28;20599;-73
2023/02/10 06:35:11;;;;;;;34.38;20.80;;;4.10;99.90;;;;;;4979686;28;20273;-73
2023/02/10 06:37:37;;;;;;;33.27;21.47;;;4.10;99.90;;;;;;5013951;28;20288;-74
2023/02/10 06:40:04;;;;;;;33.07;21.30;;;4.10;99.90;;;;;;5012767;28;20577;-74
2023/02/10 06:42:30;;;;;;;34.25;18.35;;;4.20;99.90;;;;;;5013218;28;20625;-73
2023/02/10 06:44:56;;;;;;;31.80;18.17;;;4.20;99.90;;;;;;5012887;28;20237;-74
2023/02/10 06:47:21;;;;;;;33.17;18.00;;;4.20;99.90;;;;;;5013443;28;20198;-73
2023/02/10 06:49:47;;;;;;;30.37;18.30;;;4.30;99.90;;;;;;5013244;28;20642;-73
2023/02/10 06:52:13;;;;;;;31.80;20.83;;;4.30;99.90;;;;;;5014643;28;20178;-73
2023/02/10 06:54:39;;;;;;;31.17;18.97;;;4.20;99.90;;;;;;5013189;28;20178;-73
2023/02/10 06:57:04;;;;;;;30.27;17.70;;;4.20;99.90;;;;;;4996504;28;20537;-73
2023/02/10 06:59:32;;;;;;;26.97;19.03;;;4.20;99.90;;;;;;5014511;28;20616;-73
2023/02/10 07:02:00;;;;;;;30.73;18.48;;;4.20;99.90;;;;;;5003664;28;20179;-73
2023/02/10 07:04:28;;;;;;;26.75;17.95;;;4.20;99.90;;;;;;5004972;28;20178;-74
2023/02/10 07:06:54;;;;;;;26.65;17.17;;;4.20;99.90;;;;;;4996247;28;20170;-74
2023/02/10 07:09:20;;;;;;;23.70;16.80;;;4.20;99.90;;;;;;4996492;28;20237;-74
2023/02/10 07:11:45;;;;;;;27.53;15.17;;;4.20;99.90;;;;;;4996458;28;20194;-74
2023/02/10 07:14:11;;;;;;;29.97;18.87;;;4.20;99.90;;;;;;4996831;28;20183;-74
2023/02/10 07:16:37;;;;;;;28.37;18.10;;;4.20;99.90;;;;;;4995925;28;20522;-74
2023/02/10 07:19:03;;;;;;;25.30;16.27;;;4.20;99.90;;;;;;4996755;28;20659;-74
2023/02/10 07:21:28;;;;;;;28.40;17.37;;;4.30;99.90;;;;;;4996098;28;20236;-73
2023/02/10 07:23:54;;;;;;;31.20;18.60;;;4.30;99.90;;;;;;5013908;28;21264;-74
2023/02/10 07:26:20;;;;;;;35.20;18.40;;;4.40;99.90;;;;;;4995098;28;20585;-74
2023/02/10 07:28:46;;;;;;;27.47;17.73;;;4.40;99.90;;;;;;4996239;28;20241;-74
2023/02/10 07:31:12;;;;;;;29.45;18.77;;;4.50;99.90;;;;;;4996335;28;20174;-74
2023/02/10 07:33:38;;;;;;;39.67;18.40;;;4.50;99.90;;;;;;4997629;28;20201;-74
2023/02/10 07:36:05;;;;;;;27.88;19.17;;;4.60;99.90;;;;;;5019988;28;20170;-74
2023/02/10 07:38:31;;;;;;;31.85;18.40;;;4.60;99.90;;;;;;5001571;28;20309;-74
2023/02/10 07:40:58;;;;;;;29.50;19.23;;;4.60;99.90;;;;;;5002401;28;20273;-74
2023/02/10 07:43:23;;;;;;;28.92;19.15;;;4.70;99.90;;;;;;4999214;28;20568;-74
2023/02/10 07:45:58;;;;;;;36.45;22.20;;;4.70;99.90;;;;;;4998773;28;20174;-74
2023/02/10 07:48:24;;;;;;;31.67;20.97;;;4.70;99.90;;;;;;5000396;28;20711;-75
2023/02/10 07:50:51;;;;;;;29.50;19.30;;;4.70;99.90;;;;;;4997159;28;20581;-75
2023/02/10 07:53:18;;;;;;;33.13;20.27;;;4.70;99.90;;;;;;4995999;28;20182;-75
2023/02/10 07:55:44;;;;;;;27.88;20.20;;;4.70;99.90;;;;;;4995482;28;20233;-74
2023/02/10 07:58:09;;;;;;;35.87;20.20;;;4.70;99.90;;;;;;4996733;28;20232;-73
2023/02/10 08:00:35;;;;;;;35.63;21.10;;;4.80;99.90;;;;;;4996534;28;20182;-74
2023/02/10 08:03:01;;;;;;;33.63;22.70;;;4.80;99.90;;;;;;5012194;28;20728;-74
2023/02/10 08:05:28;;;;;;;38.00;24.53;;;4.80;99.90;;;;;;4975427;28;20226;-74
2023/02/10 08:07:54;;;;;;;40.90;24.77;;;4.90;99.90;;;;;;4976253;28;20606;-74
2023/02/10 08:10:20;;;;;;;38.03;22.60;;;4.90;99.90;;;;;;4975859;28;20179;-74
2023/02/10 08:12:46;;;;;;;43.13;30.00;;;4.90;99.90;;;;;;4985573;28;20734;-73
2023/02/10 08:15:12;;;;;;;37.45;25.20;;;4.80;99.90;;;;;;5012598;28;20589;-74
2023/02/10 08:17:38;;;;;;;34.72;20.85;;;4.90;99.90;;;;;;4995358;28;20194;-75
2023/02/10 08:20:08;;;;;;;41.30;21.98;;;4.90;99.90;;;;;;4995412;28;20182;-73
2023/02/10 08:22:34;;;;;;;30.67;20.77;;;5.00;99.90;;;;;;4994604;28;20301;-74
2023/02/10 08:25:00;;;;;;;27.45;17.58;;;5.00;99.90;;;;;;4978791;28;20170;-74
2023/02/10 08:27:28;;;;;;;29.10;19.50;;;5.10;99.90;;;;;;4994792;28;20808;-74
2023/02/10 08:29:54;;;;;;;31.35;20.65;;;5.10;99.90;;;;;;5013172;28;20174;-74
2023/02/10 08:32:21;;;;;;;27.77;17.85;;;5.10;99.90;;;;;;4994605;28;20579;-74
2023/02/10 08:34:48;;;;;;;29.08;18.95;;;5.10;99.90;;;;;;5012796;28;20190;-74
2023/02/10 08:37:15;;;;;;;32.45;18.23;;;5.20;99.90;;;;;;5011872;28;20550;-74
2023/02/10 08:39:41;;;;;;;28.77;18.15;;;5.30;99.90;;;;;;4995026;28;20181;-74
2023/02/10 08:42:06;;;;;;;28.53;18.77;;;5.40;99.90;;;;;;4978445;28;20174;-74
2023/02/10 08:44:33;;;;;;;28.40;17.17;;;5.40;99.90;;;;;;5012246;28;20225;-74
2023/02/10 08:46:59;;;;;;;26.63;18.77;;;5.60;99.90;;;;;;5011980;28;20175;-75
2023/02/10 08:49:24;;;;;;;26.57;18.10;;;5.70;99.90;;;;;;4994257;28;20872;-73
2023/02/10 08:51:56;;;;;;;31.80;20.30;;;5.90;99.90;;;;;;5011523;28;21124;-74
2023/02/10 08:54:22;;;;;;;27.30;16.85;;;6.00;99.90;;;;;;4994261;28;20188;-75
2023/02/10 08:56:52;;;;;;;27.10;16.17;;;6.20;99.90;;;;;;4994267;28;20186;-74
2023/02/10 08:59:18;;;;;;;25.55;18.23;;;6.40;99.90;;;;;;4994067;28;20609;-74
2023/02/10 09:01:44;;;;;;;24.33;16.38;;;6.60;99.90;;;;;;4993492;28;20187;-75
2023/02/10 09:04:09;;;;;;;27.53;17.70;;;6.70;99.90;;;;;;5007166;28;20249;-74
2023/02/10 09:06:39;;;;;;;26.50;19.27;;;6.80;99.90;;;;;;5020194;23;20256;-77
2023/02/10 09:09:16;;;;;;;27.27;19.73;;;6.90;99.90;;;;;;4959062;28;20183;-77
2023/02/10 09:11:43;;;;;;;31.42;19.75;;;7.00;99.90;;;;;;4974340;28;20179;-76
2023/02/10 09:14:09;;;;;;;30.95;19.48;;;7.00;99.90;;;;;;4975013;28;20592;-76
2023/02/10 09:16:35;;;;;;;27.67;17.40;;;7.00;99.90;;;;;;4963983;28;20213;-75
2023/02/10 09:19:02;;;;;;;29.15;20.05;;;7.00;99.90;;;;;;4955331;28;20180;-75
2023/02/10 09:21:28;;;;;;;23.20;16.70;;;7.00;99.90;;;;;;4971234;28;20226;-76
2023/02/10 09:23:54;;;;;;;31.73;19.83;;;6.90;99.90;;;;;;4974464;28;20203;-76
2023/02/10 09:26:19;;;;;;;26.47;18.30;;;6.90;99.90;;;;;;4939025;28;20642;-76
2023/02/10 09:28:45;;;;;;;31.70;20.10;;;6.90;99.90;;;;;;4971742;28;20595;-77
2023/02/10 09:31:13;;;;;;;28.60;20.87;;;6.80;99.90;;;;;;4972251;28;20202;-76
2023/02/10 09:33:39;;;;;;;31.80;19.70;;;6.80;99.90;;;;;;4971128;28;20188;-76
2023/02/10 09:36:06;;;;;;;34.90;20.52;;;6.80;99.90;;;;;;4954628;28;20203;-76
2023/02/10 09:38:33;;;;;;;28.45;19.45;;;6.80;99.90;;;;;;4972303;28;20179;-75
2023/02/10 09:41:25;;;;;;;23.92;16.90;;;6.90;99.90;;;;;;4972540;28;20171;-76
2023/02/10 09:44:15;;;;;;;25.67;17.75;;;7.00;99.90;;;;;;4971023;28;20278;-76
2023/02/10 09:46:47;;;;;;;25.38;18.58;;;7.40;99.90;;;;;;4971975;28;20210;-76
2023/02/10 09:49:31;;;;;;;30.23;18.80;;;8.00;99.90;;;;;;4971543;28;20176;-76
2023/02/10 09:52:15;;;;;;;26.52;16.63;;;8.60;99.90;;;;;;4971027;28;20206;-77
2023/02/10 09:54:43;;;;;;;24.23;17.92;;;9.30;99.90;;;;;;4971919;28;20598;-78
2023/02/10 09:57:14;;;;;;;25.00;18.20;;;9.90;99.90;;;;;;4972199;28;20234;-75
2023/02/10 09:59:42;;;;;;;24.15;16.58;;;10.50;99.90;;;;;;4971573;28;20202;-79
2023/02/10 10:02:35;;;;;;;23.10;17.30;;;11.00;99.90;;;;;;4955387;28;20168;-77
2023/02/10 10:05:15;;;;;;;27.50;19.53;;;11.50;99.90;;;;;;4970810;28;20242;-78
2023/02/10 10:07:50;;;;;;;20.80;17.10;;;12.40;99.90;;;;;;4967708;28;20650;-76
2023/02/10 10:10:40;;;;;;;20.30;15.77;;;13.30;99.90;;;;;;4967717;28;20686;-77
2023/02/10 10:13:19;;;;;;;21.33;17.07;;;14.10;99.90;;;;;;4965297;28;20590;-77
2023/02/10 10:16:14;;;;;;;21.67;16.17;;;15.00;99.90;;;;;;4954022;28;20619;-76
2023/02/10 10:19:15;;;;;;;22.67;16.97;;;15.80;99.90;;;;;;4970907;28;21138;-77
2023/02/10 10:21:51;;;;;;;21.50;16.80;;;16.50;99.90;;;;;;4954274;28;20590;-76
2023/02/10 10:24:20;;;;;;;19.50;15.40;;;17.20;99.90;;;;;;4970759;28;20729;-77
2023/02/10 10:26:56;;;;;;;20.03;15.73;;;17.70;99.90;;;;;;4968583;28;20669;-77
2023/02/10 10:29:48;;;;;;;20.60;16.10;;;18.00;99.90;;;;;;4972664;28;20587;-77
2023/02/10 10:32:35;;;;;;;18.23;14.70;;;18.20;99.90;;;;;;4969887;28;20603;-80
2023/02/10 10:35:03;;;;;;;18.43;15.97;;;18.30;99.90;;;;;;4973719;28;20606;-77
2023/02/10 10:37:29;;;;;;;18.90;16.57;;;18.40;99.90;;;;;;4962706;28;20626;-78
2023/02/10 10:40:07;;;;;;;21.87;16.53;;;18.40;99.90;;;;;;4972196;28;20599;-78
2023/02/10 10:42:46;;;;;;;25.60;21.40;;;18.50;99.90;;;;;;4986531;28;20766;-79
2023/02/10 10:45:16;;;;;;;18.00;16.10;;;18.30;99.90;;;;;;4988437;28;20172;-79
2023/02/10 10:47:58;;;;;;;23.20;18.10;;;18.40;99.90;;;;;;4987632;28;20615;-79
2023/02/10 10:50:23;;;;;;;19.90;15.80;;;18.50;99.90;;;;;;4975372;28;20579;-78
2023/02/10 10:52:53;;;;;;;18.37;15.97;;;18.60;99.90;;;;;;4971890;28;20594;-77
2023/02/10 10:55:32;;;;;;;19.13;15.87;;;18.60;99.90;;;;;;4971585;28;20548;-77
2023/02/10 10:58:00;;;;;;;21.57;16.47;;;18.70;99.90;;;;;;4972291;28;20614;-78
2023/02/10 11:00:28;;;;;;;17.70;15.67;;;18.70;99.90;;;;;;4971921;28;20579;-77
2023/02/10 11:03:01;;;;;;;19.50;16.97;;;18.50;99.90;;;;;;4957894;28;20665;-77
2023/02/10 11:05:30;;;;;;;21.97;18.87;;;18.40;99.90;;;;;;4973214;28;20584;-77
2023/02/10 11:07:57;;;;;;;21.03;16.80;;;18.20;99.90;;;;;;4975631;28;20645;-76
2023/02/10 11:10:31;;;;;;;20.47;16.00;;;17.90;99.90;;;;;;4957760;28;20645;-76
2023/02/10 11:12:57;;;;;;;21.73;17.60;;;17.60;99.90;;;;;;4975429;28;20922;-77
2023/02/10 11:15:35;;;;;;;21.93;17.43;;;17.00;99.90;;;;;;4960169;28;20745;-77
2023/02/10 11:18:02;;;;;;;26.37;18.63;;;16.50;99.90;;;;;;4975430;28;20575;-77
2023/02/10 11:20:33;;;;;;;24.77;17.40;;;16.10;99.90;;;;;;4974938;28;20575;-77
2023/02/10 11:23:17;;;;;;;23.80;19.60;;;15.60;99.60;;;;;;4975095;28;20634;-77
2023/02/10 11:25:54;;;;;;;22.47;17.53;;;15.20;99.60;;;;;;4974397;28;20653;-77
2023/02/10 11:28:23;;;;;;;23.60;18.50;;;14.80;99.90;;;;;;4978411;28;20707;-79
2023/02/10 11:30:59;;;;;;;25.90;17.20;;;14.50;99.90;;;;;;4981842;28;20598;-79
2023/02/10 11:33:30;;;;;;;20.70;15.80;;;14.40;99.90;;;;;;4975625;28;20669;-77
2023/02/10 11:36:12;;;;;;;20.17;16.23;;;14.20;99.90;;;;;;4975959;28;20674;-77
2023/02/10 11:38:39;;;;;;;20.60;16.50;;;14.00;99.90;;;;;;4974830;28;20583;-77
2023/02/10 11:41:10;;;;;;;30.17;19.13;;;13.80;99.90;;;;;;4974641;28;20247;-77
2023/02/10 11:43:46;;;;;;;26.52;17.73;;;13.70;99.90;;;;;;4974691;28;20289;-77
2023/02/10 11:46:38;;;;;;;30.50;22.70;;;13.60;99.90;;;;;;4973502;28;20770;-76
2023/02/10 11:49:16;;;;;;;23.97;18.60;;;13.40;99.90;;;;;;4953915;28;21151;-78
2023/02/10 11:51:52;;;;;;;28.23;18.63;;;13.40;99.90;;;;;;4967406;28;20629;-76
2023/02/10 11:54:18;;;;;;;22.43;16.53;;;13.40;99.90;;;;;;4954989;28;20595;-77
2023/02/10 11:59:58;;;;;;;21.07;17.13;;;13.60;99.90;;;;;;4974037;28;20201;-78
2023/02/10 12:02:47;;;;;;;26.00;18.30;;;13.60;99.90;;;;;;4974917;28;21146;-80
2023/02/10 12:05:22;;;;;;;24.60;19.65;;;13.70;99.90;;;;;;4973585;28;20711;-80
2023/02/10 12:08:04;;;;;;;23.67;18.23;;;13.70;99.90;;;;;;4973660;28;20253;-77
2023/02/10 12:10:47;;;;;;;30.40;21.65;;;13.70;99.90;;;;;;4973338;28;20707;-80
2023/02/10 12:13:41;;;;;;;22.23;17.47;;;13.60;99.90;;;;;;4973006;28;20188;-80
2023/02/10 12:16:23;;;;;;;25.55;17.50;;;13.60;99.90;;;;;;4971159;28;20631;-79
2023/02/10 12:19:15;;;;;;;23.90;18.63;;;13.70;99.90;;;;;;4975549;28;20247;-80
2023/02/10 12:21:50;;;;;;;22.50;17.67;;;13.80;99.90;;;;;;4973319;28;20587;-79
2023/02/10 12:24:57;;;;;;;25.00;16.63;;;14.00;99.90;;;;;;4977304;28;20626;-79
2023/02/10 12:27:48;;;;;;;21.30;16.53;;;14.10;99.90;;;;;;4972976;28;20651;-80
2023/02/10 12:30:17;;;;;;;24.43;17.90;;;14.20;99.90;;;;;;4954498;28;20576;-80
2023/02/10 12:32:58;;;;;;;25.47;17.10;;;14.40;99.90;;;;;;4936724;29;21202;-79
2023/02/10 12:35:41;;;;;;;22.43;16.77;;;14.40;99.90;;;;;;4956718;28;20957;-79
2023/02/10 12:38:41;;;;;;;20.53;16.37;;;14.50;99.90;;;;;;4953532;28;20628;-80
2023/02/10 12:41:09;;;;;;;19.67;15.37;;;14.50;99.90;;;;;;4955227;28;20602;-79
2023/02/10 12:43:45;;;;;;;18.83;14.23;;;14.60;99.90;;;;;;4954132;28;20627;-82
2023/02/10 12:46:21;;;;;;;19.45;14.40;;;14.70;99.90;;;;;;4966272;28;20618;-79
2023/02/10 12:48:56;;;;;;;15.73;12.80;;;14.60;99.90;;;;;;4960422;28;20176;-78
2023/02/10 12:51:27;;;;;;;17.47;12.70;;;14.60;99.90;;;;;;4979064;28;20618;-78
2023/02/10 12:54:09;;;;;;;17.17;11.90;;;14.40;99.90;;;;;;4977485;28;20984;-79
2023/02/10 12:56:57;;;;;;;13.80;11.53;;;14.30;99.90;;;;;;4955099;28;21267;-78